createdAt,value
2023-05-05T00:01:57.135Z,9.49
2023-05-05T00:04:24.319Z,9.36
2023-05-05T00:06:51.167Z,9.25
2023-05-05T00:09:17.949Z,9.15
2023-05-05T00:11:44.577Z,9.13
2023-05-05T00:14:11.396Z,9.13
2023-05-05T00:16:38.078Z,9.08
2023-05-05T00:19:05.046Z,9.02
2023-05-05T00:21:31.839Z,8.95
2023-05-05T00:23:58.703Z,8.87
2023-05-05T00:26:25.372Z,8.81
2023-05-05T00:28:52.093Z,8.75
2023-05-05T00:31:18.858Z,8.70
2023-05-05T00:33:45.618Z,8.66
2023-05-05T00:36:13.189Z,8.57
2023-05-05T00:38:39.867Z,8.50
2023-05-05T00:41:07.073Z,8.48
2023-05-05T00:43:33.829Z,8.46
2023-05-05T00:46:13.346Z,8.47
2023-05-05T00:48:39.943Z,8.52
2023-05-05T00:51:08.796Z,8.57
2023-05-05T00:53:35.681Z,8.56
2023-05-05T00:56:02.425Z,8.54
2023-05-05T00:58:30.041Z,8.44
2023-05-05T01:00:56.927Z,8.35
2023-05-05T01:03:23.693Z,8.30
2023-05-05T01:05:53.796Z,8.24
2023-05-05T01:08:32.532Z,8.17
2023-05-05T01:11:02.627Z,8.06
2023-05-05T01:13:53.480Z,8.03
2023-05-05T01:16:25.272Z,8.00
2023-05-05T01:18:55.128Z,7.92
2023-05-05T01:21:26.852Z,7.80
2023-05-05T01:24:16.655Z,7.75
2023-05-05T01:27:04.058Z,7.68
2023-05-05T01:29:42.904Z,7.62
2023-05-05T01:32:12.380Z,7.52
2023-05-05T01:34:46.244Z,7.38
2023-05-05T01:37:17.651Z,7.25
2023-05-05T01:39:50.224Z,7.13
2023-05-05T01:42:18.055Z,7.06
2023-05-05T01:44:45.920Z,7.03
2023-05-05T01:47:14.920Z,7.04
2023-05-05T01:49:46.043Z,7.06
2023-05-05T01:52:16.514Z,7.04
2023-05-05T01:54:47.062Z,7.02
2023-05-05T01:57:14.661Z,7.02
2023-05-05T01:59:41.797Z,6.98
2023-05-05T02:02:10.880Z,6.94
2023-05-05T02:04:40.780Z,6.90
2023-05-05T02:07:08.353Z,6.84
2023-05-05T02:09:36.040Z,6.77
2023-05-05T02:12:04.019Z,6.75
2023-05-05T02:14:32.273Z,6.73
2023-05-05T02:16:59.085Z,6.76
2023-05-05T02:19:31.557Z,6.75
2023-05-05T02:21:58.405Z,6.72
2023-05-05T02:24:25.947Z,6.75
2023-05-05T02:26:53.436Z,6.77
2023-05-05T02:29:23.805Z,6.76
2023-05-05T02:31:52.947Z,6.76
2023-05-05T02:34:23.977Z,6.72
2023-05-05T02:36:53.907Z,6.60
2023-05-05T02:39:25.016Z,6.51
2023-05-05T02:41:53.537Z,6.45
2023-05-05T02:44:24.057Z,6.42
2023-05-05T02:46:51.530Z,6.40
2023-05-05T02:49:18.780Z,6.33
2023-05-05T02:51:46.124Z,6.26
2023-05-05T02:54:20.104Z,6.21
2023-05-05T02:56:48.319Z,6.17
2023-05-05T02:59:19.074Z,6.15
2023-05-05T03:02:05.978Z,6.14
2023-05-05T03:04:41.509Z,6.15
2023-05-05T03:07:23.212Z,6.19
2023-05-05T03:10:02.670Z,6.21
2023-05-05T03:12:34.045Z,6.16
2023-05-05T03:15:10.362Z,6.15
2023-05-05T03:17:39.529Z,6.16
2023-05-05T03:20:07.168Z,6.16
2023-05-05T03:22:36.597Z,6.13
2023-05-05T03:25:05.565Z,6.11
2023-05-05T03:27:32.492Z,6.05
2023-05-05T03:29:59.674Z,6.08
2023-05-05T03:32:26.932Z,6.11
2023-05-05T03:34:54.395Z,6.14
2023-05-05T03:37:25.745Z,6.16
2023-05-05T03:39:52.974Z,6.19
2023-05-05T03:42:20.215Z,6.24
2023-05-05T03:44:47.019Z,6.30
2023-05-05T03:47:13.727Z,6.39
2023-05-05T03:49:40.862Z,6.45
2023-05-05T03:52:08.124Z,6.49
2023-05-05T03:54:35.211Z,6.48
2023-05-05T03:57:02.293Z,6.46
2023-05-05T03:59:29.098Z,6.52
2023-05-05T04:01:56.201Z,6.61
2023-05-05T04:04:22.876Z,6.68
2023-05-05T04:06:49.681Z,6.80
2023-05-05T04:09:16.406Z,6.91
2023-05-05T04:11:43.402Z,7.04
2023-05-05T04:14:10.339Z,7.23
2023-05-05T04:16:37.491Z,7.45
2023-05-05T04:19:04.313Z,7.63
2023-05-05T04:21:31.822Z,7.79
2023-05-05T04:23:59.095Z,7.93
2023-05-05T04:26:27.178Z,8.18
2023-05-05T04:28:55.144Z,8.40
2023-05-05T04:31:21.945Z,8.58
2023-05-05T04:33:48.777Z,8.76
2023-05-05T04:36:15.534Z,9.03
2023-05-05T04:38:42.706Z,9.44
2023-05-05T04:41:09.565Z,9.94
2023-05-05T04:43:37.398Z,10.45
2023-05-05T04:46:04.739Z,10.65
2023-05-05T04:48:33.808Z,10.67
2023-05-05T04:51:04.000Z,10.68
2023-05-05T04:53:30.955Z,10.68
2023-05-05T04:55:59.483Z,10.82
2023-05-05T04:58:27.645Z,11.09
2023-05-05T05:00:57.506Z,11.42
2023-05-05T05:03:24.781Z,11.75
2023-05-05T05:05:52.871Z,11.99
2023-05-05T05:08:21.076Z,12.33
2023-05-05T05:10:50.285Z,12.74
2023-05-05T05:13:17.011Z,13.12
2023-05-05T05:15:47.585Z,13.37
2023-05-05T05:18:14.520Z,13.75
2023-05-05T05:20:47.280Z,14.09
2023-05-05T05:23:15.160Z,14.23
2023-05-05T05:25:43.345Z,14.23
2023-05-05T05:28:20.632Z,14.31
2023-05-05T05:30:54.043Z,14.62
2023-05-05T05:33:23.021Z,14.94
2023-05-05T05:35:52.414Z,15.15
2023-05-05T05:38:21.370Z,15.31
2023-05-05T05:40:51.133Z,15.63
2023-05-05T05:43:18.351Z,15.91
2023-05-05T05:45:45.562Z,16.34
2023-05-05T05:48:12.664Z,16.85
2023-05-05T05:50:42.988Z,16.94
2023-05-05T05:53:13.755Z,17.21
2023-05-05T05:55:45.900Z,17.59
2023-05-05T05:58:14.179Z,17.86
2023-05-05T06:00:43.153Z,18.38
2023-05-05T06:03:13.969Z,19.01
2023-05-05T06:05:47.001Z,19.53
2023-05-05T06:08:38.136Z,20.01
2023-05-05T06:11:26.945Z,20.37
2023-05-05T06:17:34.263Z,21.22
2023-05-05T06:20:12.717Z,21.50
2023-05-05T06:22:46.050Z,21.20
2023-05-05T06:25:22.770Z,20.92
2023-05-05T06:27:53.363Z,21.12
2023-05-05T06:30:21.926Z,21.70
2023-05-05T06:32:51.514Z,22.07
2023-05-05T06:35:18.928Z,22.13
2023-05-05T06:37:52.103Z,21.84
2023-05-05T06:40:23.414Z,21.25
2023-05-05T06:42:56.041Z,20.89
2023-05-05T06:45:27.673Z,20.76
2023-05-05T06:47:55.224Z,20.71
2023-05-05T06:50:22.298Z,20.83
2023-05-05T06:52:50.799Z,20.74
2023-05-05T06:55:22.956Z,20.59
2023-05-05T06:57:51.997Z,20.67
2023-05-05T07:00:19.125Z,20.75
2023-05-05T07:02:47.853Z,21.22
2023-05-05T07:05:15.013Z,21.50
2023-05-05T07:07:55.679Z,21.65
2023-05-05T07:10:25.578Z,21.68
2023-05-05T07:12:54.191Z,21.81
2023-05-05T07:15:29.127Z,21.93
2023-05-05T07:17:57.155Z,22.12
2023-05-05T07:20:24.745Z,21.96
2023-05-05T07:22:52.839Z,21.90
2023-05-05T07:25:20.694Z,22.00
2023-05-05T07:27:49.316Z,21.77
2023-05-05T07:30:19.151Z,21.56
2023-05-05T07:32:46.781Z,21.78
2023-05-05T07:35:13.836Z,22.33
2023-05-05T07:37:43.961Z,22.98
2023-05-05T07:40:12.744Z,23.60
2023-05-05T07:42:40.272Z,24.17
2023-05-05T07:45:10.322Z,24.54
2023-05-05T07:47:38.562Z,25.02
2023-05-05T07:50:06.839Z,25.32
2023-05-05T07:52:46.751Z,25.44
2023-05-05T07:55:17.056Z,25.25
2023-05-05T07:57:51.370Z,25.59
2023-05-05T08:00:21.669Z,25.93
2023-05-05T08:03:01.692Z,26.11
2023-05-05T08:05:30.267Z,26.46
2023-05-05T08:07:57.827Z,26.86
2023-05-05T08:10:30.331Z,27.01
2023-05-05T08:13:01.023Z,27.16
2023-05-05T08:15:34.509Z,27.61
2023-05-05T08:18:04.461Z,28.18
2023-05-05T08:20:35.227Z,28.19
2023-05-05T08:23:07.997Z,28.04
2023-05-05T08:25:37.537Z,28.04
2023-05-05T08:28:05.385Z,28.08
2023-05-05T08:30:34.426Z,28.32
2023-05-05T08:33:04.469Z,28.34
2023-05-05T08:35:34.614Z,28.67
2023-05-05T08:38:09.071Z,28.80
2023-05-05T08:40:42.006Z,29.02
2023-05-05T08:43:11.414Z,28.66
2023-05-05T08:45:42.418Z,27.84
2023-05-05T08:48:12.548Z,27.45
2023-05-05T08:50:44.744Z,27.26
2023-05-05T08:53:16.915Z,26.41
2023-05-05T08:55:51.947Z,25.82
2023-05-05T08:58:19.292Z,25.64
2023-05-05T09:00:46.465Z,26.00
2023-05-05T09:03:14.483Z,26.28
2023-05-05T09:05:42.294Z,25.76
2023-05-05T09:08:13.860Z,25.54
2023-05-05T09:10:44.380Z,25.16
2023-05-05T09:13:14.804Z,24.68
2023-05-05T09:15:43.285Z,24.36
2023-05-05T09:18:13.115Z,23.98
2023-05-05T09:20:47.228Z,23.75
2023-05-05T09:23:15.805Z,23.53
2023-05-05T09:25:47.354Z,23.79
2023-05-05T09:28:15.738Z,24.72
2023-05-05T09:30:49.084Z,25.41
2023-05-05T09:33:28.356Z,26.28
2023-05-05T09:35:59.150Z,27.47
2023-05-05T09:38:26.739Z,28.13
2023-05-05T09:40:58.039Z,28.23
2023-05-05T09:43:27.782Z,27.44
2023-05-05T09:46:09.857Z,26.40
2023-05-05T09:48:44.006Z,25.96
2023-05-05T09:51:20.650Z,26.26
2023-05-05T09:53:57.112Z,26.86
2023-05-05T09:56:36.261Z,26.57
2023-05-05T09:59:10.348Z,25.77
2023-05-05T10:01:40.835Z,25.15
2023-05-05T10:04:09.247Z,25.31
2023-05-05T10:06:39.659Z,26.14
2023-05-05T10:09:06.715Z,26.90
2023-05-05T10:11:34.012Z,27.75
2023-05-05T10:14:01.889Z,28.37
2023-05-05T10:16:29.496Z,28.86
2023-05-05T10:18:58.147Z,29.55
2023-05-05T10:21:25.967Z,30.29
2023-05-05T10:24:15.194Z,30.84
2023-05-05T10:26:43.627Z,31.08
2023-05-05T10:29:16.851Z,31.38
2023-05-05T10:31:49.349Z,31.63
2023-05-05T10:34:35.128Z,31.59
2023-05-05T10:37:04.090Z,30.36
2023-05-05T10:39:30.959Z,28.77
2023-05-05T10:42:01.442Z,27.76
2023-05-05T10:44:33.081Z,27.75
2023-05-05T10:47:01.396Z,27.89
2023-05-05T10:49:44.199Z,27.97
2023-05-05T10:52:13.935Z,27.76
2023-05-05T10:54:54.153Z,27.34
2023-05-05T10:57:23.202Z,26.55
2023-05-05T10:59:50.033Z,25.74
2023-05-05T11:02:27.448Z,24.81
2023-05-05T11:05:02.973Z,23.96
2023-05-05T11:07:29.750Z,23.50
2023-05-05T11:10:01.054Z,23.17
2023-05-05T11:12:28.158Z,22.88
2023-05-05T11:15:13.858Z,22.66
2023-05-05T11:17:44.038Z,22.43
2023-05-05T11:20:10.923Z,22.33
2023-05-05T11:22:56.507Z,22.56
2023-05-05T11:25:43.971Z,22.28
2023-05-05T11:28:15.904Z,21.81
2023-05-05T11:30:55.264Z,21.81
2023-05-05T11:33:32.028Z,21.88
2023-05-05T11:35:59.687Z,22.07
2023-05-05T11:38:32.259Z,21.98
2023-05-05T11:41:04.069Z,21.68
2023-05-05T11:43:30.807Z,21.41
2023-05-05T11:46:11.470Z,21.44
2023-05-05T11:48:48.272Z,21.35
2023-05-05T11:51:15.962Z,21.22
2023-05-05T11:53:43.649Z,20.95
2023-05-05T11:56:11.466Z,20.85
2023-05-05T11:58:38.216Z,20.91
2023-05-05T12:01:06.058Z,21.09
2023-05-05T12:03:36.218Z,21.16
2023-05-05T12:06:03.908Z,21.19
2023-05-05T12:08:40.257Z,21.27
2023-05-05T12:11:07.884Z,21.37
2023-05-05T12:13:34.945Z,21.36
2023-05-05T12:16:12.238Z,21.30
2023-05-05T12:18:39.555Z,21.30
2023-05-05T12:21:16.265Z,21.19
2023-05-05T12:23:42.864Z,21.09
2023-05-05T12:26:29.202Z,21.10
2023-05-05T12:28:56.772Z,21.06
2023-05-05T12:31:33.682Z,20.99
2023-05-05T12:34:01.364Z,20.87
2023-05-05T12:36:30.483Z,20.81
2023-05-05T12:38:57.525Z,20.78
2023-05-05T12:41:24.494Z,20.73
2023-05-05T12:43:58.687Z,20.70
2023-05-05T12:46:25.894Z,20.64
2023-05-05T12:48:59.773Z,20.66
2023-05-05T12:51:27.572Z,20.83
2023-05-05T12:54:01.895Z,21.10
2023-05-05T12:56:39.961Z,21.20
2023-05-05T12:59:07.077Z,21.30
2023-05-05T13:01:34.878Z,21.28
2023-05-05T13:04:05.665Z,21.23
2023-05-05T13:06:32.507Z,21.28
2023-05-05T13:08:59.253Z,21.35
2023-05-05T13:11:26.212Z,21.24
2023-05-05T13:13:52.999Z,21.00
2023-05-05T13:16:19.734Z,20.85
2023-05-05T13:18:46.967Z,20.72
2023-05-05T13:21:13.641Z,20.69
2023-05-05T13:23:44.149Z,20.74
2023-05-05T13:26:11.851Z,20.80
2023-05-05T13:28:41.584Z,20.98
2023-05-05T13:31:08.300Z,21.04
2023-05-05T13:33:35.425Z,20.85
2023-05-05T13:36:02.767Z,20.81
2023-05-05T13:38:31.644Z,20.82
2023-05-05T13:40:59.116Z,20.81
2023-05-05T13:43:25.685Z,20.68
2023-05-05T13:45:52.988Z,20.51
2023-05-05T13:48:19.873Z,20.45
2023-05-05T13:50:46.694Z,20.40
2023-05-05T13:53:13.729Z,20.39
2023-05-05T13:55:43.965Z,20.33
2023-05-05T13:58:10.916Z,20.31
2023-05-05T14:00:38.122Z,20.38
2023-05-05T14:03:05.085Z,20.45
2023-05-05T14:05:33.130Z,20.47
2023-05-05T14:07:59.763Z,20.43
2023-05-05T14:10:29.278Z,20.30
2023-05-05T14:12:56.644Z,20.19
2023-05-05T14:15:23.296Z,20.10
2023-05-05T14:17:50.208Z,20.03
2023-05-05T14:20:16.910Z,20.00
2023-05-05T14:22:43.629Z,19.99
2023-05-05T14:25:10.393Z,19.97
2023-05-05T14:27:37.134Z,20.03
2023-05-05T14:30:04.604Z,20.08
2023-05-05T14:32:31.891Z,20.12
2023-05-05T14:34:58.508Z,20.08
2023-05-05T14:37:25.796Z,20.05
2023-05-05T14:39:52.410Z,20.10
2023-05-05T14:42:19.121Z,20.09
2023-05-05T14:44:46.207Z,20.05
2023-05-05T14:47:12.790Z,20.00
2023-05-05T14:49:39.424Z,20.01
2023-05-05T14:52:06.205Z,20.03
2023-05-05T14:54:33.074Z,20.07
2023-05-05T14:56:59.797Z,20.13
2023-05-05T14:59:27.078Z,20.14
2023-05-05T15:01:53.855Z,20.07
2023-05-05T15:04:20.634Z,19.95
2023-05-05T15:06:47.233Z,19.89
2023-05-05T15:09:13.933Z,19.84
2023-05-05T15:11:40.788Z,19.75
2023-05-05T15:14:07.441Z,19.73
2023-05-05T15:16:35.348Z,19.73
2023-05-05T15:19:02.469Z,19.71
2023-05-05T15:21:29.203Z,19.74
2023-05-05T15:23:55.913Z,19.77
2023-05-05T15:26:23.370Z,19.74
2023-05-05T15:28:51.977Z,19.76
2023-05-05T15:31:18.801Z,19.75
2023-05-05T15:33:47.917Z,19.73
2023-05-05T15:36:15.682Z,19.68
2023-05-05T15:38:42.717Z,19.62
2023-05-05T15:41:09.281Z,19.48
2023-05-05T15:43:35.921Z,19.38
2023-05-05T15:46:02.633Z,19.32
2023-05-05T15:48:29.664Z,19.23
2023-05-05T15:50:56.265Z,19.13
2023-05-05T15:53:23.018Z,19.04
2023-05-05T15:55:49.654Z,18.97
2023-05-05T15:58:16.381Z,18.88
2023-05-05T16:00:43.012Z,18.80
2023-05-05T16:03:09.874Z,18.75
2023-05-05T16:05:36.535Z,18.68
2023-05-05T16:08:09.019Z,18.63
2023-05-05T16:10:36.742Z,18.63
2023-05-05T16:13:03.448Z,18.59
2023-05-05T16:15:30.159Z,18.50
2023-05-05T16:17:56.911Z,18.41
2023-05-05T16:20:23.701Z,18.31
2023-05-05T16:22:50.305Z,18.21
2023-05-05T16:25:19.196Z,18.10
2023-05-05T16:27:46.011Z,18.01
2023-05-05T16:30:14.916Z,17.91
2023-05-05T16:32:41.710Z,17.80
2023-05-05T16:35:08.721Z,17.70
2023-05-05T16:37:35.995Z,17.62
2023-05-05T16:40:04.899Z,17.55
2023-05-05T16:42:31.412Z,17.48
2023-05-05T16:44:58.059Z,17.41
2023-05-05T16:47:24.921Z,17.34
2023-05-05T16:49:52.079Z,17.27
2023-05-05T16:52:18.840Z,17.19
2023-05-05T16:54:47.303Z,17.14
2023-05-05T16:57:14.193Z,17.08
2023-05-05T16:59:41.205Z,17.01
2023-05-05T17:02:08.154Z,16.93
2023-05-05T17:04:34.928Z,16.86
2023-05-05T17:07:01.658Z,16.79
2023-05-05T17:09:28.276Z,16.73
2023-05-05T17:11:55.414Z,16.67
2023-05-05T17:14:23.731Z,16.61
2023-05-05T17:16:50.614Z,16.55
2023-05-05T17:19:17.231Z,16.50
2023-05-05T17:21:43.912Z,16.43
2023-05-05T17:24:10.826Z,16.34
2023-05-05T17:26:38.413Z,16.28
2023-05-05T17:29:05.322Z,16.22
2023-05-05T17:31:31.914Z,16.15
2023-05-05T17:33:58.893Z,16.08
2023-05-05T17:36:25.604Z,16.02
2023-05-05T17:38:52.247Z,15.96
2023-05-05T17:41:19.218Z,15.89
2023-05-05T17:43:45.986Z,15.82
2023-05-05T17:46:12.837Z,15.75
2023-05-05T17:48:39.614Z,15.69
2023-05-05T17:51:06.258Z,15.61
2023-05-05T17:53:33.651Z,15.52
2023-05-05T17:56:00.243Z,15.43
2023-05-05T17:58:26.918Z,15.31
2023-05-05T18:00:53.802Z,15.25
2023-05-05T18:03:20.546Z,15.19
2023-05-05T18:05:47.407Z,15.13
2023-05-05T18:08:14.088Z,15.02
2023-05-05T18:10:40.769Z,14.92
2023-05-05T18:13:07.433Z,14.79
2023-05-05T18:15:34.194Z,14.65
2023-05-05T18:18:00.930Z,14.51
2023-05-05T18:20:27.615Z,14.38
2023-05-05T18:22:54.210Z,14.26
2023-05-05T18:25:21.005Z,14.17
2023-05-05T18:27:47.577Z,14.08
2023-05-05T18:30:14.195Z,13.98
2023-05-05T18:32:40.788Z,13.93
2023-05-05T18:35:08.011Z,13.92
2023-05-05T18:37:35.321Z,13.88
2023-05-05T18:40:01.989Z,13.81
2023-05-05T18:42:28.621Z,13.72
2023-05-05T18:44:55.181Z,13.59
2023-05-05T18:47:21.859Z,13.44
2023-05-05T18:49:49.167Z,13.21
2023-05-05T18:52:16.366Z,13.05
2023-05-05T18:54:43.144Z,12.91
2023-05-05T18:57:10.135Z,12.79
2023-05-05T18:59:36.828Z,12.72
2023-05-05T19:02:03.809Z,12.66
2023-05-05T19:04:32.267Z,12.62
2023-05-05T19:06:59.415Z,12.61
2023-05-05T19:09:26.917Z,12.61
2023-05-05T19:11:53.600Z,12.61
2023-05-05T19:14:21.555Z,12.58
2023-05-05T19:16:48.275Z,12.50
2023-05-05T19:19:15.113Z,12.35
2023-05-05T19:21:44.372Z,12.21
2023-05-05T19:24:11.173Z,12.13
2023-05-05T19:26:37.829Z,12.08
2023-05-05T19:29:04.483Z,12.05
2023-05-05T19:31:31.548Z,12.01
2023-05-05T19:33:59.670Z,11.99
2023-05-05T19:36:27.419Z,12.00
2023-05-05T19:38:54.914Z,11.98
2023-05-05T19:41:21.622Z,11.91
2023-05-05T19:43:49.377Z,11.87
2023-05-05T19:46:16.620Z,11.78
2023-05-05T19:48:43.735Z,11.71
2023-05-05T19:51:10.427Z,11.62
2023-05-05T19:53:37.089Z,11.53
2023-05-05T19:56:04.419Z,11.46
2023-05-05T19:58:42.816Z,11.38
2023-05-05T20:01:09.419Z,11.29
2023-05-05T20:03:36.330Z,11.26
2023-05-05T20:06:03.329Z,11.19
2023-05-05T20:08:30.088Z,11.12
2023-05-05T20:10:56.787Z,11.08
2023-05-05T20:13:23.730Z,11.07
2023-05-05T20:15:50.438Z,10.97
2023-05-05T20:18:17.017Z,10.91
2023-05-05T20:20:43.666Z,10.88
2023-05-05T20:23:10.478Z,10.83
2023-05-05T20:25:37.201Z,10.75
2023-05-05T20:28:04.436Z,10.67
2023-05-05T20:30:31.077Z,10.64
2023-05-05T20:32:57.701Z,10.59
2023-05-05T20:35:25.049Z,10.59
2023-05-05T20:37:51.748Z,10.62
2023-05-05T20:40:18.569Z,10.62
2023-05-05T20:42:45.307Z,10.61
2023-05-05T20:45:11.948Z,10.60
2023-05-05T20:47:38.658Z,10.56
2023-05-05T20:50:05.955Z,10.52
2023-05-05T20:52:35.648Z,10.48
2023-05-05T20:55:02.303Z,10.48
2023-05-05T20:57:29.012Z,10.48
2023-05-05T20:59:55.934Z,10.46
2023-05-05T21:02:22.601Z,10.42
2023-05-05T21:04:49.852Z,10.36
2023-05-05T21:07:16.416Z,10.34
2023-05-05T21:09:45.520Z,10.31
2023-05-05T21:12:12.271Z,10.29
2023-05-05T21:14:42.661Z,10.24
2023-05-05T21:17:09.692Z,10.22
2023-05-05T21:19:36.225Z,10.21
2023-05-05T21:22:03.862Z,10.19
2023-05-05T21:24:30.603Z,10.18
2023-05-05T21:26:57.181Z,10.22
2023-05-05T21:29:26.737Z,10.25
2023-05-05T21:31:53.645Z,10.29
2023-05-05T21:34:20.334Z,10.31
2023-05-05T21:36:47.123Z,10.31
2023-05-05T21:39:13.686Z,10.33
2023-05-05T21:41:40.543Z,10.36
2023-05-05T21:44:07.219Z,10.38
2023-05-05T21:46:33.896Z,10.34
2023-05-05T21:49:10.645Z,10.30
2023-05-05T21:51:37.363Z,10.26
2023-05-05T21:54:03.979Z,10.25
2023-05-05T21:56:32.301Z,10.25
2023-05-05T21:58:59.388Z,10.28
2023-05-05T22:01:25.992Z,10.33
2023-05-05T22:03:53.336Z,10.42
2023-05-05T22:06:20.584Z,10.49
2023-05-05T22:08:47.692Z,10.56
2023-05-05T22:11:14.478Z,10.56
2023-05-05T22:13:41.361Z,10.49
2023-05-05T22:16:08.288Z,10.46
2023-05-05T22:18:35.519Z,10.48
2023-05-05T22:21:02.702Z,10.56
2023-05-05T22:23:29.300Z,10.64
2023-05-05T22:25:56.693Z,10.71
2023-05-05T22:28:23.307Z,10.75
2023-05-05T22:30:50.181Z,10.76
2023-05-05T22:33:16.864Z,10.72
2023-05-05T22:35:43.398Z,10.66
2023-05-05T22:38:10.027Z,10.61
2023-05-05T22:40:36.769Z,10.55
2023-05-05T22:43:03.496Z,10.48
2023-05-05T22:45:30.220Z,10.39
2023-05-05T22:47:56.998Z,10.28
2023-05-05T22:50:23.718Z,10.20
2023-05-05T22:52:50.427Z,10.12
2023-05-05T22:55:17.117Z,10.04
2023-05-05T22:57:43.747Z,9.97
2023-05-05T23:00:10.534Z,9.90
2023-05-05T23:02:37.302Z,9.83
2023-05-05T23:05:04.672Z,9.78
2023-05-05T23:07:31.705Z,9.73
2023-05-05T23:09:58.415Z,9.72
2023-05-05T23:12:25.410Z,9.67
2023-05-05T23:14:52.106Z,9.60
2023-05-05T23:17:18.987Z,9.53
2023-05-05T23:19:47.173Z,9.49
2023-05-05T23:22:13.828Z,9.44
2023-05-05T23:24:40.536Z,9.40
2023-05-05T23:27:07.107Z,9.36
2023-05-05T23:29:33.824Z,9.31
2023-05-05T23:32:00.407Z,9.27
2023-05-05T23:34:26.998Z,9.27
2023-05-05T23:36:53.544Z,9.28
2023-05-05T23:39:20.260Z,9.35
2023-05-05T23:41:46.905Z,9.37
2023-05-05T23:44:13.552Z,9.37
2023-05-05T23:46:40.389Z,9.41
2023-05-05T23:49:07.544Z,9.38
2023-05-05T23:51:34.232Z,9.39
2023-05-05T23:54:01.135Z,9.47
2023-05-05T23:56:27.903Z,9.45
2023-05-05T23:58:54.479Z,9.42
